Aviation Digital Data Service (ADDS)

Output produced by TAFs form (0407 UTC 01 February 2015)
found at http://aviationweather.gov/adds/tafs/
 
KTUS 010327Z 0103/0124 15004KT P6SM FEW015 SCT040 BKN080 
     FM010700 14006KT P6SM FEW015 SCT025 BKN050 
     FM012000 31005KT P6SM SCT050